Time;durP1;ratioP1;P1;durP2;ratioP2;P2;SDS_P1;SDS_P2;PMS_P1;PMS_P2;Temp;Humidity;BMP_temperature;BMP_pressure;BME280_temperature;BME280_humidity;BME280_pressure;Samples;Min_cycle;Max_cycle;Signal;HPM_P1;HPM_P2
2024/02/02 00:00:48;;;;;;;20.93;5.90;;;5.30;99.90;;;;;;5034838;28;20199;-53
2024/02/02 00:03:15;;;;;;;26.60;6.57;;;5.30;99.90;;;;;;5016891;28;20226;-51
2024/02/02 00:05:42;;;;;;;16.30;5.50;;;5.30;99.90;;;;;;5036716;28;20196;-55
2024/02/02 00:08:09;;;;;;;23.53;5.93;;;5.30;99.90;;;;;;5027575;28;20215;-52
2024/02/02 00:10:36;;;;;;;15.23;4.73;;;5.30;99.90;;;;;;5034062;28;21001;-56
2024/02/02 00:13:05;;;;;;;17.50;4.80;;;5.30;99.90;;;;;;5028917;28;20265;-51
2024/02/02 00:15:32;;;;;;;16.27;4.90;;;5.30;99.90;;;;;;5037055;28;20253;-51
2024/02/02 00:17:59;;;;;;;16.60;4.73;;;5.30;99.90;;;;;;5042302;28;20594;-55
2024/02/02 00:20:26;;;;;;;15.33;4.33;;;5.30;99.90;;;;;;5009361;28;20549;-57
2024/02/02 00:22:53;;;;;;;16.07;4.20;;;5.20;99.90;;;;;;5020674;28;20703;-54
2024/02/02 00:25:20;;;;;;;16.30;4.57;;;5.20;99.90;;;;;;5043621;28;20196;-57
2024/02/02 00:27:47;;;;;;;17.37;4.20;;;5.20;99.90;;;;;;5020292;28;20274;-54
2024/02/02 00:30:16;;;;;;;20.77;5.10;;;5.20;99.90;;;;;;5032139;28;20219;-57
2024/02/02 00:32:44;;;;;;;17.80;4.33;;;5.20;99.90;;;;;;5031247;28;20207;-51
2024/02/02 00:35:12;;;;;;;20.80;4.80;;;5.20;99.90;;;;;;5007555;28;20766;-57
2024/02/02 00:37:39;;;;;;;19.47;4.50;;;5.20;99.90;;;;;;5031246;28;20187;-52
2024/02/02 00:40:08;;;;;;;19.63;4.97;;;5.20;99.90;;;;;;5024911;28;20200;-53
2024/02/02 00:42:36;;;;;;;17.87;4.43;;;5.20;99.90;;;;;;5020195;28;20365;-53
2024/02/02 00:45:03;;;;;;;14.83;4.47;;;5.20;99.90;;;;;;5039204;28;20203;-53
2024/02/02 00:47:31;;;;;;;12.80;4.10;;;5.10;99.90;;;;;;5026333;28;20199;-58
2024/02/02 00:49:59;;;;;;;12.60;3.50;;;5.20;99.90;;;;;;5029790;28;20329;-52
2024/02/02 00:52:26;;;;;;;12.03;3.87;;;5.20;99.90;;;;;;5003927;28;20613;-57
2024/02/02 00:54:53;;;;;;;14.13;4.37;;;5.10;99.90;;;;;;5024150;28;20200;-54
2024/02/02 00:57:20;;;;;;;17.57;3.73;;;5.10;99.90;;;;;;5028482;28;20192;-53
2024/02/02 00:59:48;;;;;;;14.47;4.33;;;5.10;99.90;;;;;;5023998;28;20269;-51
2024/02/02 01:02:14;;;;;;;17.47;4.80;;;5.10;99.90;;;;;;5032074;28;20215;-57
2024/02/02 01:04:43;;;;;;;16.70;4.27;;;5.10;99.90;;;;;;5039131;28;20191;-56
2024/02/02 01:07:10;;;;;;;15.63;4.17;;;5.10;99.90;;;;;;5013190;28;20234;-57
2024/02/02 01:09:37;;;;;;;14.33;3.90;;;5.10;99.90;;;;;;5036485;28;20722;-54
2024/02/02 01:12:05;;;;;;;18.67;4.20;;;5.20;99.90;;;;;;5029167;28;20238;-58
2024/02/02 01:14:32;;;;;;;17.40;4.97;;;5.20;99.90;;;;;;5024897;28;20191;-60
2024/02/02 01:16:59;;;;;;;13.53;4.50;;;5.20;99.90;;;;;;5030518;28;20222;-52
2024/02/02 01:19:26;;;;;;;17.17;4.10;;;5.20;99.90;;;;;;5033399;28;20215;-54
2024/02/02 01:21:55;;;;;;;12.83;4.53;;;5.20;99.90;;;;;;5009779;28;20230;-54
2024/02/02 01:24:23;;;;;;;14.37;4.40;;;5.20;99.90;;;;;;5031629;28;20954;-55
2024/02/02 01:26:50;;;;;;;13.07;3.83;;;5.20;99.90;;;;;;5028875;28;20203;-54
2024/02/02 01:29:17;;;;;;;10.37;4.07;;;5.20;99.90;;;;;;5030498;28;20219;-53
2024/02/02 01:31:44;;;;;;;10.27;3.37;;;5.20;99.90;;;;;;5043479;28;20245;-54
2024/02/02 01:34:10;;;;;;;13.93;4.23;;;5.20;99.90;;;;;;5044860;28;20196;-58
2024/02/02 01:36:38;;;;;;;13.60;4.00;;;5.20;99.90;;;;;;5046135;28;20183;-52
2024/02/02 01:39:10;;;;;;;12.73;3.87;;;5.20;99.90;;;;;;5012069;28;20202;-57
2024/02/02 01:41:38;;;;;;;10.47;3.97;;;5.20;99.90;;;;;;5020308;28;20226;-54
2024/02/02 01:44:06;;;;;;;15.60;4.17;;;5.20;99.90;;;;;;5023771;28;20614;-58
2024/02/02 01:46:33;;;;;;;13.07;4.47;;;5.20;99.90;;;;;;5024773;28;20211;-56
2024/02/02 01:49:00;;;;;;;21.83;4.20;;;5.30;99.90;;;;;;5036485;28;20196;-57
2024/02/02 01:51:27;;;;;;;13.47;4.03;;;5.30;99.90;;;;;;5036842;28;20269;-54
2024/02/02 01:53:54;;;;;;;11.77;2.73;;;5.30;99.90;;;;;;5010091;28;20254;-57
2024/02/02 01:56:22;;;;;;;16.93;4.37;;;5.20;99.90;;;;;;5035149;28;20278;-54
2024/02/02 01:58:50;;;;;;;8.33;3.40;;;5.30;99.90;;;;;;5029673;28;20203;-52
2024/02/02 02:01:17;;;;;;;14.37;4.23;;;5.30;99.90;;;;;;5028817;28;20226;-55
2024/02/02 02:03:45;;;;;;;11.07;3.53;;;5.30;99.90;;;;;;5034747;28;20206;-51
2024/02/02 02:06:12;;;;;;;13.13;3.90;;;5.30;99.90;;;;;;5030328;28;20184;-56
2024/02/02 02:08:39;;;;;;;17.23;4.13;;;5.30;99.90;;;;;;5006095;28;20203;-56
2024/02/02 02:11:07;;;;;;;17.83;4.13;;;5.30;99.90;;;;;;5029696;28;20220;-57
2024/02/02 02:13:35;;;;;;;10.83;3.43;;;5.30;99.90;;;;;;5020484;28;20604;-52
2024/02/02 02:16:02;;;;;;;16.87;3.37;;;5.40;99.90;;;;;;5024719;28;20195;-58
2024/02/02 02:18:29;;;;;;;19.23;4.53;;;5.40;99.90;;;;;;5020935;28;20180;-56
2024/02/02 02:20:56;;;;;;;12.73;3.10;;;5.40;99.90;;;;;;5029566;28;20191;-57
2024/02/02 02:23:26;;;;;;;19.37;3.83;;;5.40;99.90;;;;;;4999775;28;20220;-53
2024/02/02 02:25:53;;;;;;;13.97;3.87;;;5.40;99.90;;;;;;5040489;28;20310;-56
2024/02/02 02:28:20;;;;;;;15.27;3.03;;;5.40;99.90;;;;;;5029369;28;20968;-55
2024/02/02 02:30:47;;;;;;;8.87;3.50;;;5.40;99.90;;;;;;5028196;28;20238;-52
2024/02/02 02:33:14;;;;;;;23.43;4.60;;;5.40;99.90;;;;;;5024032;28;20228;-55
2024/02/02 02:35:41;;;;;;;17.20;3.33;;;5.40;99.90;;;;;;5039512;28;20199;-55
2024/02/02 02:38:08;;;;;;;11.83;3.17;;;5.40;99.90;;;;;;5007268;28;20255;-57
2024/02/02 02:40:36;;;;;;;17.17;4.27;;;5.40;99.90;;;;;;5030849;28;20188;-54
2024/02/02 02:43:03;;;;;;;15.17;3.70;;;5.50;99.90;;;;;;5027972;28;20244;-56
2024/02/02 02:45:30;;;;;;;20.60;3.83;;;5.50;99.90;;;;;;5020873;28;20196;-49
2024/02/02 02:47:57;;;;;;;10.63;3.27;;;5.50;99.90;;;;;;5035598;28;20209;-58
2024/02/02 02:50:24;;;;;;;15.80;3.47;;;5.50;99.90;;;;;;5027140;28;20200;-54
2024/02/02 02:52:51;;;;;;;23.23;4.73;;;5.50;99.90;;;;;;5033504;28;20230;-54
2024/02/02 02:55:20;;;;;;;11.87;3.43;;;5.50;99.90;;;;;;5006194;28;20220;-51
2024/02/02 02:57:48;;;;;;;9.53;3.13;;;5.50;99.90;;;;;;5032765;28;20200;-52
2024/02/02 03:00:15;;;;;;;18.13;3.60;;;5.50;99.90;;;;;;5018356;28;20191;-54
2024/02/02 03:02:42;;;;;;;13.03;3.73;;;5.50;99.90;;;;;;5029387;28;20211;-51
2024/02/02 03:05:09;;;;;;;20.73;4.57;;;5.50;99.90;;;;;;5030874;28;20202;-57
2024/02/02 03:07:36;;;;;;;15.20;4.07;;;5.60;99.90;;;;;;5042671;28;20204;-54
2024/02/02 03:10:04;;;;;;;11.90;3.43;;;5.60;99.90;;;;;;5020293;28;20559;-58
2024/02/02 03:12:31;;;;;;;10.53;3.00;;;5.60;99.90;;;;;;5028314;28;20293;-53
2024/02/02 03:14:59;;;;;;;12.10;3.77;;;5.60;99.90;;;;;;5032249;28;20750;-57
2024/02/02 03:17:26;;;;;;;13.00;3.40;;;5.60;99.90;;;;;;5031356;28;20975;-55
2024/02/02 03:19:53;;;;;;;16.33;3.60;;;5.60;99.90;;;;;;5037524;28;20321;-57
2024/02/02 03:22:20;;;;;;;24.03;4.27;;;5.60;99.90;;;;;;5035492;28;20219;-52
2024/02/02 03:24:47;;;;;;;9.30;3.00;;;5.60;99.90;;;;;;5037042;28;20773;-54
2024/02/02 03:27:14;;;;;;;12.87;3.70;;;5.60;99.90;;;;;;5013324;28;20910;-54
2024/02/02 03:29:41;;;;;;;17.50;3.47;;;5.70;99.90;;;;;;5039645;28;20195;-51
2024/02/02 03:32:10;;;;;;;12.60;3.27;;;5.70;99.90;;;;;;5022756;28;20223;-57
2024/02/02 03:34:36;;;;;;;9.33;4.10;;;5.70;99.90;;;;;;5040177;28;20249;-55
2024/02/02 03:37:04;;;;;;;11.47;3.50;;;5.70;99.90;;;;;;5032334;28;20207;-56
2024/02/02 03:39:31;;;;;;;22.20;3.67;;;5.70;99.90;;;;;;5041298;28;20193;-50
2024/02/02 03:41:57;;;;;;;14.93;4.10;;;5.70;99.90;;;;;;5013184;28;20311;-58
2024/02/02 03:44:24;;;;;;;9.93;3.37;;;5.70;99.90;;;;;;5036842;28;20950;-51
2024/02/02 03:46:51;;;;;;;13.90;3.50;;;5.70;99.90;;;;;;5038384;28;20224;-55
2024/02/02 03:49:20;;;;;;;13.20;3.27;;;5.70;99.90;;;;;;5020719;28;20187;-54
2024/02/02 03:51:47;;;;;;;10.80;4.43;;;5.70;99.90;;;;;;5032778;28;20225;-54
2024/02/02 03:54:13;;;;;;;19.97;4.63;;;5.70;99.90;;;;;;5036021;28;20200;-54
2024/02/02 03:56:42;;;;;;;14.07;3.73;;;5.70;99.90;;;;;;5015803;28;20211;-54
2024/02/02 03:59:10;;;;;;;12.27;3.67;;;5.70;99.90;;;;;;5038447;28;20195;-57
2024/02/02 04:01:37;;;;;;;18.70;4.63;;;5.70;99.90;;;;;;5041609;28;20199;-56
2024/02/02 04:04:05;;;;;;;10.17;4.23;;;5.70;99.90;;;;;;5023590;28;20191;-58
2024/02/02 04:06:33;;;;;;;14.00;3.77;;;5.80;99.90;;;;;;5033308;28;20203;-53
2024/02/02 04:09:00;;;;;;;10.67;3.23;;;5.70;99.90;;;;;;5025075;28;20540;-57
2024/02/02 04:11:27;;;;;;;19.93;4.80;;;5.80;99.90;;;;;;5005666;28;20219;-53
2024/02/02 04:13:54;;;;;;;16.13;5.10;;;5.80;99.90;;;;;;5029150;28;20274;-56
2024/02/02 04:16:21;;;;;;;12.30;4.63;;;5.80;99.90;;;;;;5028477;28;20485;-54
2024/02/02 04:18:48;;;;;;;16.97;4.83;;;5.80;99.90;;;;;;5024877;28;20195;-55
2024/02/02 04:21:15;;;;;;;13.13;4.43;;;5.80;99.90;;;;;;5029947;28;20821;-53
2024/02/02 04:23:43;;;;;;;10.83;4.17;;;5.80;99.90;;;;;;5029369;28;20195;-56
2024/02/02 04:26:10;;;;;;;18.90;5.87;;;5.80;99.90;;;;;;5030664;28;20191;-54
2024/02/02 04:28:37;;;;;;;17.97;5.13;;;5.80;99.90;;;;;;5009760;28;20218;-57
2024/02/02 04:31:04;;;;;;;16.97;5.83;;;5.80;99.90;;;;;;5026709;28;20233;-56
2024/02/02 04:33:31;;;;;;;15.03;5.77;;;5.90;99.90;;;;;;5030570;28;20561;-51
2024/02/02 04:35:58;;;;;;;20.10;5.40;;;5.90;99.90;;;;;;5021887;28;20203;-58
2024/02/02 04:38:25;;;;;;;18.97;5.50;;;5.90;99.90;;;;;;5030553;28;20573;-54
2024/02/02 04:40:53;;;;;;;17.73;5.97;;;5.90;99.90;;;;;;5024402;28;20204;-57
2024/02/02 04:43:20;;;;;;;20.70;6.10;;;5.90;99.90;;;;;;5006060;28;20322;-58
2024/02/02 04:45:48;;;;;;;17.33;6.10;;;5.90;99.90;;;;;;5031365;28;20677;-56
2024/02/02 04:48:15;;;;;;;17.53;5.20;;;5.90;99.90;;;;;;5029161;28;20675;-53
2024/02/02 04:50:42;;;;;;;17.40;4.90;;;5.90;99.90;;;;;;5022493;28;20215;-58
2024/02/02 04:53:08;;;;;;;18.47;5.93;;;5.90;99.90;;;;;;5031901;28;20213;-54
2024/02/02 04:55:35;;;;;;;15.33;5.80;;;5.90;99.90;;;;;;5025886;28;20542;-54
2024/02/02 04:58:04;;;;;;;18.67;6.47;;;5.90;99.90;;;;;;5013363;28;20352;-51
2024/02/02 05:00:31;;;;;;;13.77;5.10;;;5.90;99.90;;;;;;5036538;28;21377;-54
2024/02/02 05:02:58;;;;;;;14.50;5.07;;;5.90;99.90;;;;;;5009695;28;20235;-56
2024/02/02 05:05:25;;;;;;;17.43;6.27;;;5.90;99.90;;;;;;5027265;28;20223;-57
2024/02/02 05:07:52;;;;;;;20.17;6.07;;;5.90;99.90;;;;;;5029599;28;20203;-55
2024/02/02 05:10:19;;;;;;;18.40;6.13;;;5.90;99.90;;;;;;5031065;28;20218;-57
2024/02/02 05:12:46;;;;;;;21.57;5.97;;;5.90;99.90;;;;;;5006290;28;20337;-54
2024/02/02 05:15:15;;;;;;;18.27;6.53;;;5.90;99.90;;;;;;5034140;28;20196;-57
2024/02/02 05:17:42;;;;;;;17.10;6.00;;;5.90;99.90;;;;;;5032770;28;20285;-54
2024/02/02 05:20:09;;;;;;;22.47;6.50;;;5.90;99.90;;;;;;5035021;28;20199;-53
2024/02/02 05:22:36;;;;;;;18.27;6.97;;;5.90;99.90;;;;;;5019567;28;20295;-53
2024/02/02 05:25:04;;;;;;;21.00;7.13;;;5.90;99.90;;;;;;5034232;28;20560;-52
2024/02/02 05:27:31;;;;;;;12.37;5.97;;;5.90;99.90;;;;;;5005065;28;24715;-55
2024/02/02 05:29:58;;;;;;;14.00;5.80;;;5.90;99.90;;;;;;5034125;28;20890;-54
2024/02/02 05:32:27;;;;;;;17.93;7.30;;;5.90;99.90;;;;;;5042191;28;20216;-57
2024/02/02 05:34:54;;;;;;;20.23;6.63;;;5.90;99.90;;;;;;5034922;28;20279;-54
2024/02/02 05:37:21;;;;;;;14.23;6.60;;;5.90;99.90;;;;;;5019545;28;20199;-58
2024/02/02 05:39:47;;;;;;;15.77;6.90;;;5.90;99.90;;;;;;5027291;28;20210;-50
2024/02/02 05:42:15;;;;;;;18.37;7.00;;;5.90;99.90;;;;;;5032967;28;20297;-57
2024/02/02 05:44:42;;;;;;;19.50;7.47;;;6.00;99.90;;;;;;5011351;28;20210;-58
2024/02/02 05:47:09;;;;;;;14.90;7.30;;;6.00;99.90;;;;;;5028520;28;20196;-50
2024/02/02 05:49:38;;;;;;;16.47;7.47;;;5.90;99.90;;;;;;5023825;28;20290;-52
2024/02/02 05:52:05;;;;;;;20.07;7.17;;;5.90;99.90;;;;;;5024361;28;20230;-52
2024/02/02 05:54:35;;;;;;;20.93;7.80;;;5.90;99.90;;;;;;5020799;28;20207;-53
2024/02/02 05:57:02;;;;;;;23.07;8.20;;;5.90;99.90;;;;;;5025868;28;20701;-52
2024/02/02 05:59:29;;;;;;;15.43;7.53;;;5.90;99.90;;;;;;4991995;28;20925;-57
2024/02/02 06:01:56;;;;;;;19.97;8.23;;;5.90;99.90;;;;;;5032222;28;20227;-51
2024/02/02 06:04:23;;;;;;;24.43;8.27;;;5.90;99.90;;;;;;5029093;28;20200;-56
2024/02/02 06:06:51;;;;;;;19.97;8.33;;;5.90;99.90;;;;;;5029738;28;20203;-50
2024/02/02 06:09:17;;;;;;;20.10;6.83;;;5.90;99.90;;;;;;5017045;28;20214;-57
2024/02/02 06:11:44;;;;;;;16.53;7.80;;;5.90;99.90;;;;;;5041906;28;20215;-53
2024/02/02 06:14:11;;;;;;;20.43;7.77;;;5.90;99.90;;;;;;5023382;28;20205;-57
2024/02/02 06:16:38;;;;;;;13.63;7.83;;;5.90;99.90;;;;;;5025942;28;20203;-55
2024/02/02 06:19:05;;;;;;;22.83;7.83;;;6.00;99.90;;;;;;5042620;28;20198;-57
2024/02/02 06:21:32;;;;;;;16.87;7.17;;;5.90;99.90;;;;;;5026456;28;20816;-51
2024/02/02 06:24:00;;;;;;;19.27;8.30;;;6.00;99.90;;;;;;5033553;28;20737;-53
2024/02/02 06:26:27;;;;;;;19.43;8.77;;;6.00;99.90;;;;;;5029578;28;20927;-55
2024/02/02 06:28:54;;;;;;;14.20;7.67;;;6.00;99.90;;;;;;5036485;28;20203;-53
2024/02/02 06:31:24;;;;;;;20.60;8.97;;;6.00;99.90;;;;;;5016887;28;20840;-57
2024/02/02 06:33:51;;;;;;;19.10;8.83;;;6.00;99.90;;;;;;5040816;28;20220;-51
2024/02/02 06:36:17;;;;;;;16.60;9.17;;;5.90;99.90;;;;;;5028555;28;20197;-57
2024/02/02 06:38:44;;;;;;;24.03;9.17;;;5.90;99.90;;;;;;5022674;28;20195;-55
2024/02/02 06:41:13;;;;;;;21.63;9.37;;;5.90;99.90;;;;;;5031599;28;20207;-57
2024/02/02 06:43:40;;;;;;;24.97;8.30;;;5.90;99.90;;;;;;5030451;28;20775;-55
2024/02/02 06:46:07;;;;;;;17.33;7.63;;;5.90;99.90;;;;;;5016870;28;20203;-55
2024/02/02 06:48:34;;;;;;;24.77;9.63;;;5.90;99.90;;;;;;5032353;28;20196;-51
2024/02/02 06:51:01;;;;;;;11.93;6.47;;;5.90;99.90;;;;;;5032269;28;20572;-53
2024/02/02 06:53:31;;;;;;;28.73;9.97;;;5.90;99.90;;;;;;5013693;28;21012;-49
2024/02/02 06:55:58;;;;;;;25.67;9.27;;;6.00;99.90;;;;;;5036964;28;20286;-54
2024/02/02 06:58:40;;;;;;;19.13;8.60;;;6.00;99.90;;;;;;5030453;28;20199;-52
2024/02/02 07:01:09;;;;;;;20.43;9.23;;;6.00;99.90;;;;;;5019595;28;20218;-53
2024/02/02 07:03:36;;;;;;;16.63;8.37;;;6.00;99.90;;;;;;5033897;28;20191;-53
2024/02/02 07:06:06;;;;;;;24.93;9.03;;;6.00;99.90;;;;;;5038216;28;20199;-52
2024/02/02 07:08:33;;;;;;;22.40;9.47;;;6.00;99.90;;;;;;5031158;28;21012;-54
2024/02/02 07:11:21;;;;;;;17.93;8.50;;;6.00;99.90;;;;;;5025620;28;20215;-50
2024/02/02 07:13:51;;;;;;;21.13;9.83;;;6.00;99.90;;;;;;5030692;28;20387;-54
2024/02/02 07:16:28;;;;;;;21.20;10.03;;;6.00;99.90;;;;;;5007495;28;20269;-51
2024/02/02 07:18:59;;;;;;;23.27;10.23;;;6.00;99.90;;;;;;5050824;28;20286;-53
2024/02/02 07:21:38;;;;;;;17.77;10.37;;;6.00;99.90;;;;;;5028991;28;20203;-50
2024/02/02 07:24:06;;;;;;;26.73;10.97;;;6.00;99.90;;;;;;5026546;28;20630;-54
2024/02/02 07:26:41;;;;;;;23.13;10.83;;;6.00;99.90;;;;;;5031640;28;20253;-54
2024/02/02 07:29:32;;;;;;;25.07;10.93;;;6.00;99.90;;;;;;5028387;28;20502;-53
2024/02/02 07:32:04;;;;;;;18.57;10.20;;;6.00;99.90;;;;;;5016061;28;20389;-53
2024/02/02 07:34:41;;;;;;;21.97;10.47;;;6.00;99.90;;;;;;5031713;28;20266;-51
2024/02/02 07:37:11;;;;;;;26.50;11.53;;;6.00;99.90;;;;;;5031355;28;20211;-54
2024/02/02 07:39:50;;;;;;;24.93;10.93;;;6.00;99.90;;;;;;5031207;28;20732;-54
2024/02/02 07:42:29;;;;;;;25.50;11.53;;;6.00;99.90;;;;;;5020514;28;20306;-54
2024/02/02 07:44:58;;;;;;;20.20;10.87;;;6.00;99.90;;;;;;5037411;28;20199;-55
2024/02/02 07:47:27;;;;;;;24.03;11.47;;;6.00;99.90;;;;;;5034306;28;20195;-52
2024/02/02 07:49:54;;;;;;;24.60;11.37;;;6.00;99.90;;;;;;5019438;28;20215;-53
2024/02/02 07:52:22;;;;;;;22.97;10.70;;;6.00;99.90;;;;;;5009899;28;20319;-57
2024/02/02 07:54:51;;;;;;;23.27;11.33;;;6.00;99.90;;;;;;5020246;28;20534;-56
2024/02/02 07:57:19;;;;;;;25.87;11.40;;;6.00;99.90;;;;;;5021496;28;20199;-53
2024/02/02 07:59:47;;;;;;;26.00;11.57;;;6.00;99.90;;;;;;5006637;28;20204;-53
2024/02/02 08:02:17;;;;;;;23.70;11.77;;;6.00;99.90;;;;;;5020125;28;20223;-53
2024/02/02 08:04:44;;;;;;;27.33;12.23;;;6.10;99.90;;;;;;4997106;28;20915;-53
2024/02/02 08:07:11;;;;;;;25.00;10.97;;;6.10;99.90;;;;;;5021181;28;20916;-54
2024/02/02 08:09:38;;;;;;;21.70;11.90;;;6.00;99.90;;;;;;5033141;28;20692;-50
2024/02/02 08:12:06;;;;;;;26.30;12.43;;;6.00;99.90;;;;;;5023343;28;20230;-54
2024/02/02 08:14:33;;;;;;;25.67;12.83;;;6.00;99.90;;;;;;5021217;28;20286;-54
2024/02/02 08:17:01;;;;;;;25.67;12.90;;;6.00;99.90;;;;;;5030588;28;20207;-51
2024/02/02 08:19:29;;;;;;;19.50;11.87;;;5.90;99.90;;;;;;5014102;28;20673;-56
2024/02/02 08:21:57;;;;;;;25.13;13.77;;;5.90;99.90;;;;;;5019263;28;20211;-56
2024/02/02 08:24:25;;;;;;;24.27;12.60;;;5.90;99.90;;;;;;5026865;28;20741;-55
2024/02/02 08:26:53;;;;;;;25.93;12.93;;;5.90;99.90;;;;;;5020206;28;20261;-56
2024/02/02 08:29:20;;;;;;;31.17;13.97;;;5.80;99.90;;;;;;5032667;28;20258;-54
2024/02/02 08:31:50;;;;;;;27.43;12.87;;;5.80;99.90;;;;;;5033513;28;20211;-53
2024/02/02 08:34:21;;;;;;;28.00;14.07;;;5.80;99.90;;;;;;5029213;28;20196;-53
2024/02/02 08:37:11;;;;;;;27.43;13.50;;;5.80;99.90;;;;;;4998105;28;20322;-54
2024/02/02 08:39:39;;;;;;;27.70;13.03;;;5.80;99.90;;;;;;5028554;28;20202;-55
2024/02/02 08:42:17;;;;;;;26.43;13.70;;;5.80;99.90;;;;;;5030642;28;20203;-55
2024/02/02 08:44:48;;;;;;;30.57;15.47;;;5.70;99.90;;;;;;5004621;28;20256;-55
2024/02/02 08:47:19;;;;;;;34.10;14.47;;;5.80;99.90;;;;;;5035179;28;20207;-54
2024/02/02 08:49:55;;;;;;;22.13;13.93;;;5.80;99.90;;;;;;5028204;28;20278;-54
2024/02/02 08:52:32;;;;;;;31.67;14.03;;;5.70;99.90;;;;;;5007196;28;20226;-54
2024/02/02 08:55:01;;;;;;;26.90;13.03;;;5.70;99.90;;;;;;5027305;28;20418;-55
2024/02/02 08:57:49;;;;;;;29.50;14.33;;;5.70;99.90;;;;;;5030244;28;20191;-55
2024/02/02 09:00:38;;;;;;;24.30;13.80;;;5.70;99.90;;;;;;5038803;28;20229;-55
2024/02/02 09:03:33;;;;;;;31.23;12.47;;;5.70;99.90;;;;;;5038988;28;20235;-54
2024/02/02 09:06:16;;;;;;;28.57;13.10;;;5.70;99.90;;;;;;5038245;28;20206;-56
2024/02/02 09:08:54;;;;;;;24.57;12.63;;;5.70;99.90;;;;;;5000878;28;20209;-50
2024/02/02 09:11:25;;;;;;;24.30;13.30;;;5.70;99.90;;;;;;5027900;28;20937;-56
2024/02/02 09:14:06;;;;;;;28.73;12.60;;;5.70;99.90;;;;;;5025356;28;20207;-52
2024/02/02 09:16:45;;;;;;;25.37;12.73;;;5.80;99.90;;;;;;5019173;28;20215;-54
2024/02/02 09:19:28;;;;;;;25.43;13.37;;;5.80;99.90;;;;;;5032491;28;20202;-53
2024/02/02 09:21:58;;;;;;;34.33;12.87;;;5.80;99.90;;;;;;5041935;28;20306;-54
2024/02/02 09:24:41;;;;;;;28.80;13.43;;;5.90;99.90;;;;;;5000551;28;20280;-55
2024/02/02 09:27:15;;;;;;;29.50;11.67;;;5.90;99.90;;;;;;5029634;28;20215;-54
2024/02/02 09:29:51;;;;;;;26.87;11.37;;;5.90;99.90;;;;;;5018275;28;20219;-55
2024/02/02 09:32:19;;;;;;;33.20;11.47;;;5.90;99.90;;;;;;5038436;28;20336;-55
2024/02/02 09:34:47;;;;;;;31.90;11.90;;;5.90;99.90;;;;;;5022330;28;21194;-54
2024/02/02 09:37:22;;;;;;;30.27;11.80;;;6.00;99.90;;;;;;5025265;28;20588;-54
2024/02/02 09:39:57;;;;;;;19.23;10.90;;;6.00;99.90;;;;;;5015039;28;20277;-53
2024/02/02 09:42:58;;;;;;;22.77;10.63;;;6.00;99.90;;;;;;5026243;28;20243;-55
2024/02/02 09:45:53;;;;;;;33.23;11.60;;;6.10;99.90;;;;;;5028068;28;20206;-52
2024/02/02 09:48:38;;;;;;;27.20;12.13;;;6.10;99.90;;;;;;5031872;28;20322;-55
2024/02/02 09:51:26;;;;;;;32.27;11.37;;;6.10;99.90;;;;;;5019245;28;20713;-53
2024/02/02 09:54:24;;;;;;;27.87;11.00;;;6.10;99.90;;;;;;5026069;28;20195;-52
2024/02/02 09:57:08;;;;;;;22.90;10.47;;;6.10;99.90;;;;;;5011523;28;20211;-53
2024/02/02 09:59:57;;;;;;;22.33;10.60;;;6.10;99.90;;;;;;5023899;28;20189;-51
2024/02/02 10:02:42;;;;;;;24.87;10.70;;;6.10;99.90;;;;;;5027078;28;20694;-54
2024/02/02 10:05:24;;;;;;;17.93;10.77;;;6.20;99.90;;;;;;5024189;28;20203;-53
2024/02/02 10:08:08;;;;;;;21.90;10.13;;;6.20;99.90;;;;;;5039669;28;20655;-53
2024/02/02 10:11:19;;;;;;;30.03;12.43;;;6.20;99.90;;;;;;5019497;28;20582;-52
2024/02/02 10:14:03;;;;;;;19.17;9.77;;;6.20;99.90;;;;;;4999273;28;20206;-56
2024/02/02 10:16:41;;;;;;;24.47;11.07;;;6.30;99.90;;;;;;5035214;28;20198;-55
2024/02/02 10:19:44;;;;;;;18.33;10.20;;;6.30;99.90;;;;;;5032836;28;20199;-55
2024/02/02 10:22:34;;;;;;;20.23;10.47;;;6.40;99.90;;;;;;5030497;28;20572;-54
2024/02/02 10:25:17;;;;;;;22.60;9.60;;;6.40;99.90;;;;;;5031084;28;20199;-51
2024/02/02 10:28:03;;;;;;;20.47;9.63;;;6.50;99.90;;;;;;5002407;28;20277;-53
2024/02/02 10:30:57;;;;;;;26.57;10.43;;;6.50;99.90;;;;;;5038622;28;20556;-50
2024/02/02 10:33:53;;;;;;;17.67;9.00;;;6.50;99.90;;;;;;5033317;28;20253;-54
2024/02/02 10:36:32;;;;;;;21.03;9.00;;;6.60;99.90;;;;;;5021751;28;20200;-51
2024/02/02 10:39:16;;;;;;;17.43;8.70;;;6.60;99.90;;;;;;5033659;28;20234;-53
2024/02/02 10:42:00;;;;;;;19.73;9.67;;;6.70;99.90;;;;;;5013405;28;20232;-53
2024/02/02 10:44:45;;;;;;;22.47;9.57;;;6.70;99.90;;;;;;5002123;28;20196;-52
2024/02/02 10:47:31;;;;;;;22.60;8.90;;;6.70;99.90;;;;;;5033316;28;20199;-51
2024/02/02 10:50:08;;;;;;;17.90;9.37;;;6.70;99.90;;;;;;5033502;28;20685;-54
2024/02/02 10:52:46;;;;;;;16.00;8.13;;;6.80;99.90;;;;;;5031213;28;20323;-52
2024/02/02 10:55:36;;;;;;;20.33;9.37;;;6.80;99.90;;;;;;5033283;28;20252;-53
2024/02/02 10:58:09;;;;;;;25.27;9.43;;;6.80;99.90;;;;;;5025330;28;20206;-54
2024/02/02 11:00:43;;;;;;;26.00;8.33;;;6.80;99.90;;;;;;5031268;28;20204;-55
2024/02/02 11:03:23;;;;;;;21.00;9.43;;;6.90;99.90;;;;;;5034248;28;20221;-52
2024/02/02 11:05:56;;;;;;;18.73;8.80;;;6.90;99.90;;;;;;5031968;28;20253;-54
2024/02/02 11:08:25;;;;;;;22.87;10.00;;;6.90;99.90;;;;;;5025387;28;20552;-52
2024/02/02 11:11:00;;;;;;;18.03;8.73;;;6.90;99.90;;;;;;5028934;28;20864;-51
2024/02/02 11:13:38;;;;;;;13.50;8.07;;;6.90;99.90;;;;;;5037551;28;20219;-50
2024/02/02 11:16:19;;;;;;;18.90;8.07;;;6.90;99.90;;;;;;5030442;28;20192;-51
2024/02/02 11:19:06;;;;;;;24.23;8.57;;;6.90;99.90;;;;;;5023819;28;20941;-49
2024/02/02 11:21:53;;;;;;;19.60;8.17;;;6.90;99.90;;;;;;5034629;28;20211;-53
2024/02/02 11:24:26;;;;;;;24.27;8.30;;;6.90;99.90;;;;;;5031201;28;20199;-53
2024/02/02 11:26:58;;;;;;;30.60;9.83;;;6.90;99.90;;;;;;5033892;28;20224;-47
2024/02/02 11:29:38;;;;;;;25.43;8.23;;;6.90;99.90;;;;;;5029560;28;20224;-53
2024/02/02 11:32:23;;;;;;;22.80;9.17;;;6.90;99.90;;;;;;5033429;28;20219;-54
2024/02/02 11:35:01;;;;;;;18.30;7.60;;;7.00;99.90;;;;;;5039728;28;20183;-53
2024/02/02 11:37:35;;;;;;;17.83;7.87;;;6.90;99.90;;;;;;5033144;28;20195;-53
2024/02/02 11:40:08;;;;;;;19.90;8.50;;;6.90;99.90;;;;;;5026489;28;20210;-52
2024/02/02 11:42:37;;;;;;;21.87;8.50;;;6.90;99.90;;;;;;5033266;28;20211;-55
2024/02/02 11:45:07;;;;;;;22.57;8.80;;;7.00;99.90;;;;;;5009700;28;20208;-56
2024/02/02 11:47:39;;;;;;;19.87;8.67;;;7.00;99.90;;;;;;5033943;28;20195;-55
2024/02/02 11:50:12;;;;;;;22.10;7.93;;;7.00;99.90;;;;;;5048701;28;20219;-49
2024/02/02 11:52:42;;;;;;;22.53;9.33;;;7.00;99.90;;;;;;5024568;28;20227;-54
2024/02/02 11:55:16;;;;;;;20.10;8.70;;;7.00;99.90;;;;;;5029357;28;20203;-50
2024/02/02 11:57:47;;;;;;;24.10;9.60;;;7.00;99.90;;;;;;5026792;28;20209;-51
2024/02/02 12:00:24;;;;;;;16.20;8.90;;;7.00;99.90;;;;;;5004993;28;20306;-56
2024/02/02 12:03:06;;;;;;;17.63;8.03;;;7.00;99.90;;;;;;5040699;28;20212;-53
2024/02/02 12:05:45;;;;;;;26.40;9.07;;;7.10;99.90;;;;;;5031889;28;20246;-54
2024/02/02 12:08:23;;;;;;;23.23;8.80;;;7.10;99.90;;;;;;5034888;28;20204;-54
2024/02/02 12:10:51;;;;;;;21.03;9.13;;;7.00;99.90;;;;;;5031289;28;20211;-50
2024/02/02 12:13:25;;;;;;;28.07;9.60;;;7.10;99.90;;;;;;5036445;28;20302;-50
2024/02/02 12:15:52;;;;;;;25.00;9.37;;;7.10;99.90;;;;;;4994966;28;21339;-51
2024/02/02 12:18:20;;;;;;;30.53;10.33;;;7.10;99.90;;;;;;5023779;28;20872;-51
2024/02/02 12:20:49;;;;;;;25.20;8.80;;;7.10;99.90;;;;;;5022035;28;20196;-53
2024/02/02 12:23:16;;;;;;;23.13;9.37;;;7.10;99.90;;;;;;5033516;28;20258;-53
2024/02/02 12:25:44;;;;;;;25.73;8.20;;;7.10;99.90;;;;;;5026995;28;20260;-51
2024/02/02 12:28:11;;;;;;;29.47;9.03;;;7.10;99.90;;;;;;5032043;28;20207;-53
2024/02/02 12:30:39;;;;;;;19.67;8.87;;;7.20;99.90;;;;;;5033622;28;20191;-55
2024/02/02 12:33:07;;;;;;;27.40;9.03;;;7.20;99.90;;;;;;5008613;28;20228;-54
2024/02/02 12:35:34;;;;;;;31.33;10.03;;;7.20;99.90;;;;;;5028632;28;20215;-53
2024/02/02 12:38:04;;;;;;;25.90;8.80;;;7.20;99.90;;;;;;5031547;28;20202;-55
2024/02/02 12:40:31;;;;;;;26.93;9.33;;;7.20;99.90;;;;;;5029514;28;20914;-51
2024/02/02 12:42:58;;;;;;;18.10;9.20;;;7.20;99.90;;;;;;5032938;28;20784;-52
2024/02/02 12:45:26;;;;;;;26.27;9.23;;;7.30;99.90;;;;;;5030617;28;20211;-50
2024/02/02 12:47:53;;;;;;;21.13;8.70;;;7.30;99.90;;;;;;5007688;28;20207;-51
2024/02/02 12:50:21;;;;;;;23.20;9.30;;;7.30;99.90;;;;;;5035655;28;20199;-54
2024/02/02 12:52:50;;;;;;;26.57;9.10;;;7.30;99.90;;;;;;5030631;28;20216;-56
2024/02/02 12:55:19;;;;;;;23.50;8.97;;;7.30;99.90;;;;;;5006795;28;20551;-52
2024/02/02 12:57:46;;;;;;;21.13;9.33;;;7.30;99.90;;;;;;5038839;28;20721;-56
2024/02/02 13:00:15;;;;;;;23.17;8.17;;;7.40;99.90;;;;;;5029712;28;20192;-49
2024/02/02 13:02:43;;;;;;;29.07;8.83;;;7.40;99.90;;;;;;5032535;28;20608;-54
2024/02/02 13:05:12;;;;;;;20.73;8.60;;;7.40;99.90;;;;;;5007546;28;20894;-47